Time;durP1;ratioP1;P1;durP2;ratioP2;P2;SDS_P1;SDS_P2;PMS_P1;PMS_P2;Temp;Humidity;BMP_temperature;BMP_pressure;BME280_temperature;BME280_humidity;BME280_pressure;Samples;Min_cycle;Max_cycle;Signal;HPM_P1;HPM_P2
2022/11/24 00:02:08;;;;;;;19.40;3.63;;;;;;;9.70;100.00;99511.97;8318490;28;20053;-51
2022/11/24 00:06:11;;;;;;;18.10;2.90;;;;;;;9.62;100.00;99501.13;8318505;28;20080;-50
2022/11/24 00:10:12;;;;;;;15.80;2.72;;;;;;;9.65;100.00;99507.06;8316987;28;20538;-53
2022/11/24 00:14:12;;;;;;;17.17;3.00;;;;;;;9.66;100.00;99513.28;8318085;28;20446;-50
2022/11/24 00:18:13;;;;;;;18.55;3.30;;;;;;;9.54;100.00;99519.94;8319133;28;20099;-50
2022/11/24 00:22:14;;;;;;;15.38;3.28;;;;;;;9.50;100.00;99507.78;8318247;28;20052;-50
2022/11/24 00:26:18;;;;;;;21.30;2.97;;;;;;;9.34;100.00;99507.69;8318688;28;20049;-50
2022/11/24 00:30:19;;;;;;;13.65;2.15;;;;;;;9.34;100.00;99513.91;8320327;28;20045;-52
2022/11/24 00:34:20;;;;;;;18.27;2.30;;;;;;;9.41;100.00;99516.81;8319922;28;20060;-51
2022/11/24 00:38:20;;;;;;;18.77;3.83;;;;;;;9.43;100.00;99523.75;8317141;28;20041;-50
2022/11/24 00:42:21;;;;;;;16.23;2.50;;;;;;;9.42;100.00;99526.59;8317857;28;20058;-50
2022/11/24 00:46:22;;;;;;;20.13;2.83;;;;;;;9.30;100.00;99522.50;8321260;28;20050;-51
2022/11/24 00:50:23;;;;;;;15.10;2.33;;;;;;;9.23;100.00;99537.56;8327112;28;20392;-50
2022/11/24 00:54:23;;;;;;;12.90;2.00;;;;;;;9.11;100.00;99533.44;8327887;28;20041;-50
2022/11/24 00:58:24;;;;;;;19.85;2.97;;;;;;;9.11;100.00;99544.22;8328263;28;20048;-50
2022/11/24 01:02:25;;;;;;;13.82;2.85;;;;;;;9.24;100.00;99537.41;8326978;28;20151;-54
2022/11/24 01:06:28;;;;;;;10.98;2.55;;;;;;;9.26;100.00;99550.75;8303237;28;20403;-51
2022/11/24 01:10:28;;;;;;;10.85;2.15;;;;;;;9.27;100.00;99560.56;8293702;28;20041;-51
2022/11/24 01:14:30;;;;;;;21.17;3.40;;;;;;;9.24;100.00;99561.69;8294269;28;20049;-51
2022/11/24 01:18:31;;;;;;;14.00;2.47;;;;;;;9.23;100.00;99564.53;8310050;28;20515;-50
2022/11/24 01:22:31;;;;;;;14.20;2.30;;;;;;;9.28;100.00;99562.25;8309682;28;20034;-50
2022/11/24 01:26:32;;;;;;;16.10;2.42;;;;;;;9.28;100.00;99556.84;8309281;28;20499;-50
2022/11/24 01:30:33;;;;;;;12.57;2.17;;;;;;;9.38;100.00;99563.00;8294849;28;20034;-52
2022/11/24 01:34:33;;;;;;;11.60;1.73;;;;;;;9.38;100.00;99557.59;8293959;28;20034;-50
2022/11/24 01:38:34;;;;;;;24.90;3.35;;;;;;;9.34;100.00;99556.22;8301243;28;20042;-54
2022/11/24 01:42:52;;;;;;;19.00;2.60;;;;;;;9.27;100.00;99557.84;8293111;28;20036;-51
2022/11/24 01:46:58;;;;;;;9.65;2.05;;;;;;;9.30;100.00;99565.63;8293589;28;20602;-51
2022/11/24 01:51:07;;;;;;;19.95;2.30;;;;;;;9.24;100.00;99571.66;8306443;28;20038;-51
2022/11/24 01:55:15;;;;;;;18.75;2.83;;;;;;;9.16;100.00;99563.47;8283328;28;20048;-50
2022/11/24 01:59:18;;;;;;;19.48;2.95;;;;;;;9.14;100.00;99560.09;8293091;28;20410;-53
2022/11/24 02:03:24;;;;;;;20.40;3.05;;;;;;;9.13;100.00;99558.41;8341361;28;20045;-51
2022/11/24 02:07:25;;;;;;;17.80;2.65;;;;;;;9.25;100.00;99573.34;8325194;28;20491;-51
2022/11/24 02:11:32;;;;;;;17.27;2.50;;;;;;;9.36;100.00;99578.47;8325160;28;20045;-53
2022/11/24 02:15:33;;;;;;;22.27;2.47;;;;;;;9.49;100.00;99577.06;8324445;28;20029;-48
2022/11/24 02:19:55;;;;;;;15.93;3.03;;;;;;;9.46;100.00;99582.78;8325382;28;20034;-52
2022/11/24 02:24:09;;;;;;;19.50;3.00;;;;;;;9.37;100.00;99588.28;8324897;28;20045;-50
2022/11/24 02:28:13;;;;;;;25.75;3.22;;;;;;;9.34;100.00;99583.19;8325322;28;20081;-50
2022/11/24 02:32:15;;;;;;;17.60;2.80;;;;;;;9.27;100.00;99576.75;8324863;28;20090;-49
2022/11/24 02:36:16;;;;;;;20.23;3.13;;;;;;;9.24;100.00;99587.84;8324011;28;20553;-49
2022/11/24 02:40:23;;;;;;;17.60;2.63;;;;;;;9.20;100.00;99583.72;8320909;28;20427;-49
2022/11/24 02:44:27;;;;;;;14.90;2.53;;;;;;;9.14;100.00;99587.03;8321553;28;20402;-49
2022/11/24 02:48:28;;;;;;;19.70;2.73;;;;;;;9.11;100.00;99587.34;8324062;28;20076;-51
2022/11/24 02:52:28;;;;;;;16.65;2.72;;;;;;;8.98;100.00;99581.50;8324052;28;20038;-49
2022/11/24 02:56:29;;;;;;;16.67;2.97;;;;;;;8.94;100.00;99582.81;8338734;28;20056;-52
2022/11/24 03:00:30;;;;;;;17.40;3.08;;;;;;;8.96;100.00;99588.88;8324097;28;20426;-50
2022/11/24 03:04:30;;;;;;;15.45;1.95;;;;;;;8.98;100.00;99586.88;8322855;28;20081;-51
2022/11/24 03:08:31;;;;;;;20.45;4.07;;;;;;;8.89;100.00;99603.97;8338221;28;20052;-50
2022/11/24 03:12:31;;;;;;;17.15;2.97;;;;;;;8.87;100.00;99600.56;8321839;28;20072;-50
2022/11/24 03:16:32;;;;;;;21.40;2.97;;;;;;;8.89;100.00;99610.22;8323550;28;20557;-52
2022/11/24 03:20:33;;;;;;;19.23;3.80;;;;;;;8.90;100.00;99611.91;8323794;28;20180;-50
2022/11/24 03:24:33;;;;;;;22.83;3.25;;;;;;;9.00;100.00;99614.56;8323152;28;20033;-49
2022/11/24 03:28:34;;;;;;;26.75;3.70;;;;;;;9.14;100.00;99619.41;8323661;28;20061;-51
2022/11/24 03:32:34;;;;;;;18.85;3.15;;;;;;;9.29;100.00;99613.31;8323512;28;20045;-52
2022/11/24 03:36:35;;;;;;;20.50;3.40;;;;;;;9.39;100.00;99615.91;8323787;28;20037;-50
2022/11/24 03:40:36;;;;;;;24.20;2.80;;;;;;;9.52;100.00;99619.09;8324571;28;20096;-52
2022/11/24 03:44:36;;;;;;;21.30;3.30;;;;;;;9.56;100.00;99621.31;8324451;28;20099;-51
2022/11/24 03:48:37;;;;;;;15.95;4.35;;;;;;;9.46;100.00;99625.94;8323973;28;20124;-55
2022/11/24 03:52:38;;;;;;;19.65;3.47;;;;;;;9.49;100.00;99630.19;8338679;28;20115;-55
2022/11/24 03:56:39;;;;;;;24.33;3.38;;;;;;;9.48;100.00;99637.44;8323414;28;20124;-53
2022/11/24 04:00:40;;;;;;;23.08;2.88;;;;;;;9.48;100.00;99640.13;8323211;28;20037;-52
2022/11/24 04:04:41;;;;;;;22.63;3.85;;;;;;;9.50;100.00;99648.06;8323355;28;20053;-53
2022/11/24 04:08:42;;;;;;;25.00;3.63;;;;;;;9.49;100.00;99647.22;8323356;28;20124;-52
2022/11/24 04:12:43;;;;;;;23.40;4.35;;;;;;;9.53;100.00;99650.47;8323255;28;20507;-52
2022/11/24 04:16:43;;;;;;;19.02;2.70;;;;;;;9.58;100.00;99656.25;8323938;28;20041;-54
2022/11/24 04:20:44;;;;;;;33.75;4.00;;;;;;;9.59;100.00;99647.13;8325318;28;20048;-55
2022/11/24 04:24:45;;;;;;;24.02;3.75;;;;;;;9.61;100.00;99651.38;8326106;28;20103;-54
2022/11/24 04:28:45;;;;;;;23.23;3.15;;;;;;;9.62;100.00;99652.22;8329560;28;20068;-54
2022/11/24 04:32:47;;;;;;;30.13;4.15;;;;;;;9.54;100.00;99650.31;8327733;28;20044;-55
2022/11/24 04:36:47;;;;;;;24.75;3.72;;;;;;;9.62;100.00;99652.22;8329412;28;20060;-53
2022/11/24 04:40:48;;;;;;;20.35;3.08;;;;;;;9.68;100.00;99667.78;8328533;28;20049;-55
2022/11/24 04:44:49;;;;;;;18.27;2.90;;;;;;;9.64;100.00;99663.72;8329208;28;20045;-51
2022/11/24 04:48:49;;;;;;;20.25;3.92;;;;;;;9.62;100.00;99668.41;8339153;28;20036;-54
2022/11/24 04:52:51;;;;;;;17.88;3.63;;;;;;;9.53;100.00;99670.19;8340376;28;20338;-52
2022/11/24 04:56:52;;;;;;;27.75;4.05;;;;;;;9.51;100.00;99676.72;8328512;28;20054;-54
2022/11/24 05:00:52;;;;;;;25.15;2.90;;;;;;;9.58;100.00;99683.22;8327066;28;20562;-53
2022/11/24 05:04:53;;;;;;;23.35;2.83;;;;;;;9.53;100.00;99683.69;8326676;28;20056;-55
2022/11/24 05:08:53;;;;;;;17.85;3.40;;;;;;;9.61;100.00;99694.53;8320599;28;20083;-56
2022/11/24 05:12:56;;;;;;;31.52;3.65;;;;;;;9.56;100.00;99706.81;8319783;28;20075;-54
2022/11/24 05:16:56;;;;;;;20.58;4.45;;;;;;;9.57;100.00;99700.41;8324779;28;20040;-55
2022/11/24 05:20:58;;;;;;;28.10;3.72;;;;;;;9.75;100.00;99715.59;8309217;28;20030;-55
2022/11/24 05:24:58;;;;;;;27.13;4.10;;;;;;;9.95;100.00;99721.69;8321353;28;20033;-54
2022/11/24 05:28:59;;;;;;;20.02;3.67;;;;;;;10.02;100.00;99734.41;8321698;28;20045;-53
2022/11/24 05:33:05;;;;;;;30.70;4.70;;;;;;;9.99;100.00;99748.22;8321326;28;20850;-55
2022/11/24 05:37:07;;;;;;;18.33;3.95;;;;;;;9.92;100.00;99751.69;8316466;28;20040;-56
2022/11/24 05:41:07;;;;;;;16.35;2.53;;;;;;;9.91;100.00;99749.97;8322790;28;20040;-55
2022/11/24 05:45:12;;;;;;;19.27;3.47;;;;;;;9.96;100.00;99755.75;8324183;28;20051;-54
2022/11/24 05:49:13;;;;;;;17.20;3.08;;;;;;;9.92;100.00;99767.88;8323940;28;20148;-54
2022/11/24 05:53:14;;;;;;;16.67;3.28;;;;;;;9.85;100.00;99759.53;8305408;28;20033;-53
2022/11/24 05:57:16;;;;;;;13.40;2.40;;;;;;;9.85;100.00;99780.28;8321591;28;20030;-54
2022/11/24 06:01:17;;;;;;;8.30;1.50;;;;;;;9.73;100.00;99768.03;8321979;28;20029;-52
2022/11/24 06:05:18;;;;;;;11.68;2.33;;;;;;;9.58;100.00;99750.69;8323073;28;20136;-51
2022/11/24 06:09:19;;;;;;;11.52;2.10;;;;;;;9.48;100.00;99757.97;8322801;28;20029;-52
2022/11/24 06:13:19;;;;;;;13.30;1.73;;;;;;;9.43;100.00;99771.91;8321697;28;20371;-55
2022/11/24 06:17:20;;;;;;;12.68;1.90;;;;;;;9.40;100.00;99784.88;8321419;28;20080;-55
2022/11/24 06:21:21;;;;;;;18.27;1.80;;;;;;;9.41;100.00;99786.56;8306427;28;20204;-54
2022/11/24 06:25:22;;;;;;;10.77;1.67;;;;;;;9.44;100.00;99788.97;8306078;28;20046;-53
2022/11/24 06:29:22;;;;;;;8.80;1.95;;;;;;;9.50;100.00;99793.75;8275423;28;20053;-53
2022/11/24 06:33:23;;;;;;;7.65;1.20;;;;;;;9.48;100.00;99790.34;8286516;28;20042;-54
2022/11/24 06:37:23;;;;;;;9.02;0.77;;;;;;;9.42;100.00;99794.50;8290881;28;20030;-51
2022/11/24 06:41:24;;;;;;;10.60;1.00;;;;;;;9.32;100.00;99798.25;8286573;28;20045;-50
2022/11/24 06:45:25;;;;;;;3.85;0.70;;;;;;;9.20;100.00;99792.22;8288876;28;20046;-54
2022/11/24 06:49:25;;;;;;;8.50;1.20;;;;;;;9.08;100.00;99803.34;8288438;28;20387;-54
2022/11/24 06:53:29;;;;;;;4.88;0.90;;;;;;;8.95;100.00;99802.84;8288564;28;20042;-51
2022/11/24 06:57:31;;;;;;;8.60;0.90;;;;;;;8.84;100.00;99813.81;8305875;28;20483;-52
2022/11/24 07:01:32;;;;;;;7.75;1.10;;;;;;;8.78;100.00;99817.09;8287758;28;20045;-52
2022/11/24 07:05:32;;;;;;;3.85;1.08;;;;;;;8.72;100.00;99817.69;8301336;28;20384;-54
2022/11/24 07:09:33;;;;;;;6.00;0.80;;;;;;;8.65;100.00;99840.78;8295157;28;20418;-55
2022/11/24 07:13:34;;;;;;;21.27;2.38;;;;;;;8.53;100.00;99845.50;8288224;28;20034;-53
2022/11/24 07:17:36;;;;;;;15.25;2.17;;;;;;;8.44;100.00;99850.88;8314053;28;20120;-50
2022/11/24 07:21:37;;;;;;;26.13;3.15;;;;;;;8.40;100.00;99866.50;8320869;28;20434;-52
2022/11/24 07:25:38;;;;;;;19.02;3.17;;;;;;;8.36;100.00;99875.88;8320449;28;20104;-54
2022/11/24 07:29:38;;;;;;;19.27;3.70;;;;;;;8.36;100.00;99885.78;8321577;28;20042;-55
2022/11/24 07:33:39;;;;;;;21.15;2.38;;;;;;;8.41;100.00;99889.75;8321351;28;20037;-55
2022/11/24 07:37:40;;;;;;;7.47;1.13;;;;;;;8.68;100.00;99891.69;8320105;28;20041;-54
2022/11/24 07:41:41;;;;;;;8.43;1.58;;;;;;;8.73;100.00;99908.28;8320322;28;20052;-55
2022/11/24 07:45:42;;;;;;;7.85;1.38;;;;;;;8.80;100.00;99906.72;8321426;28;20123;-55
2022/11/24 07:49:42;;;;;;;8.43;1.45;;;;;;;8.84;100.00;99918.94;8318381;28;20400;-54
2022/11/24 07:53:44;;;;;;;9.23;1.65;;;;;;;8.93;100.00;99918.03;8320914;28;20040;-51
2022/11/24 07:57:45;;;;;;;9.20;1.48;;;;;;;8.99;100.00;99929.09;8320822;28;20037;-55
2022/11/24 08:01:45;;;;;;;12.70;1.90;;;;;;;9.12;100.00;99939.59;8318801;28;20037;-55
2022/11/24 08:05:54;;;;;;;10.95;1.83;;;;;;;9.27;100.00;99938.13;8320605;28;20057;-51
2022/11/24 08:09:55;;;;;;;8.00;1.67;;;;;;;9.52;100.00;99948.25;8317157;28;20046;-53
2022/11/24 08:13:56;;;;;;;7.72;2.25;;;;;;;9.72;100.00;99957.97;8321189;28;20060;-55
2022/11/24 08:18:00;;;;;;;18.90;2.65;;;;;;;9.99;100.00;99963.38;8320618;28;20128;-54
2022/11/24 08:22:01;;;;;;;10.50;1.77;;;;;;;10.27;100.00;99973.19;8319804;28;20045;-54
2022/11/24 08:26:05;;;;;;;13.07;1.88;;;;;;;10.31;100.00;99969.16;8320986;28;20052;-55
2022/11/24 08:30:07;;;;;;;10.02;2.15;;;;;;;10.51;100.00;99976.16;8299817;28;20321;-55
2022/11/24 08:34:08;;;;;;;11.80;1.98;;;;;;;10.95;98.36;99975.19;8295154;28;20041;-55
2022/11/24 08:38:09;;;;;;;23.15;2.90;;;;;;;11.62;94.22;99997.03;8296505;28;20050;-53
2022/11/24 08:42:09;;;;;;;15.40;2.72;;;;;;;11.73;92.27;99985.94;8301206;28;20052;-51
2022/11/24 08:46:16;;;;;;;9.80;2.10;;;;;;;12.45;88.43;99996.25;8285733;28;20241;-55
2022/11/24 08:50:17;;;;;;;10.18;1.77;;;;;;;12.88;84.90;100003.28;8295115;28;20111;-53
2022/11/24 08:54:17;;;;;;;11.23;2.00;;;;;;;13.78;81.90;100001.19;8320275;28;20037;-52
2022/11/24 08:58:18;;;;;;;12.90;2.65;;;;;;;13.55;81.18;100014.66;8320480;28;20037;-51
2022/11/24 09:02:52;;;;;;;11.65;2.00;;;;;;;13.75;79.86;100020.56;8318271;28;20029;-52
2022/11/24 09:06:53;;;;;;;10.30;1.70;;;;;;;14.07;79.19;100025.94;8316358;28;20103;-53
2022/11/24 09:11:00;;;;;;;16.65;2.47;;;;;;;14.20;78.48;100030.78;8321704;28;20116;-51
2022/11/24 09:15:01;;;;;;;14.63;2.00;;;;;;;14.22;79.02;100045.94;8324949;28;20152;-55
2022/11/24 09:19:05;;;;;;;10.55;2.25;;;;;;;14.59;77.73;100048.88;8324087;28;20079;-56
2022/11/24 09:23:06;;;;;;;15.02;2.55;;;;;;;14.70;76.03;100056.59;8321956;28;20646;-53
2022/11/24 09:27:06;;;;;;;8.18;1.23;;;;;;;13.88;80.07;100058.94;8323501;28;20222;-54
2022/11/24 09:31:10;;;;;;;13.98;2.22;;;;;;;14.37;78.02;100063.25;8322500;28;20514;-56
2022/11/24 09:35:10;;;;;;;11.40;2.92;;;;;;;15.32;75.13;100071.88;8303772;28;20049;-56
2022/11/24 09:39:11;;;;;;;12.95;2.35;;;;;;;15.60;73.61;100089.41;8306926;28;20158;-53
2022/11/24 09:43:23;;;;;;;10.23;1.63;;;;;;;15.39;74.00;100086.50;8310735;28;20042;-52
2022/11/24 09:47:55;;;;;;;12.50;2.05;;;;;;;16.02;71.30;100090.72;8308078;28;20041;-55
2022/11/24 09:51:57;;;;;;;7.32;1.40;;;;;;;16.12;70.37;100094.00;8276312;28;20066;-54
2022/11/24 09:56:10;;;;;;;16.35;2.15;;;;;;;15.85;71.29;100098.19;8289297;28;20128;-54
2022/11/24 10:00:13;;;;;;;8.10;1.90;;;;;;;16.32;70.11;100093.28;8300961;28;20038;-55
2022/11/24 10:04:20;;;;;;;10.90;1.70;;;;;;;16.72;68.39;100108.34;8319752;28;20095;-53
2022/11/24 10:08:37;;;;;;;13.40;2.17;;;;;;;16.87;68.34;100112.75;8321342;28;20045;-56
2022/11/24 10:12:52;;;;;;;13.70;2.70;;;;;;;16.78;67.65;100119.38;8319831;28;20033;-54
2022/11/24 10:17:21;;;;;;;8.70;1.77;;;;;;;17.01;67.85;100109.16;8320424;28;20065;-56
2022/11/24 10:22:02;;;;;;;10.77;2.20;;;;;;;16.41;68.26;100113.97;8352009;28;20155;-56
2022/11/24 10:26:11;;;;;;;8.57;1.67;;;;;;;17.04;66.89;100129.75;8321311;28;20048;-56
2022/11/24 10:30:18;;;;;;;8.20;2.10;;;;;;;17.17;66.79;100135.41;8321167;28;20402;-56
2022/11/24 10:34:27;;;;;;;8.85;1.80;;;;;;;17.45;66.45;100128.19;8320919;28;20371;-55
2022/11/24 10:38:55;;;;;;;10.88;1.50;;;;;;;17.41;65.63;100137.75;8288099;28;20037;-53
2022/11/24 10:42:56;;;;;;;11.38;2.15;;;;;;;16.69;66.86;100136.88;8306380;28;20041;-55
2022/11/24 10:46:57;;;;;;;14.73;1.83;;;;;;;17.09;66.91;100143.69;8319218;28;20412;-52
2022/11/24 10:51:23;;;;;;;10.90;2.05;;;;;;;17.32;65.11;100138.91;8318201;28;20566;-55
2022/11/24 10:55:24;;;;;;;13.13;1.90;;;;;;;17.68;64.65;100156.19;8320154;28;20365;-55
2022/11/24 10:59:36;;;;;;;9.93;2.25;;;;;;;17.92;64.01;100147.59;8318467;28;20041;-55
2022/11/24 11:03:46;;;;;;;9.88;1.60;;;;;;;16.81;66.32;100148.16;8308857;28;20065;-55
2022/11/24 11:07:47;;;;;;;10.35;2.05;;;;;;;16.85;67.74;100158.53;8315866;28;20163;-56
2022/11/24 11:11:51;;;;;;;16.85;2.55;;;;;;;17.45;65.62;100155.53;8319402;28;20048;-54
2022/11/24 11:15:53;;;;;;;13.43;2.17;;;;;;;17.27;66.08;100152.34;8320369;28;20519;-54
2022/11/24 11:20:02;;;;;;;10.70;2.15;;;;;;;17.59;64.21;100160.06;8302992;28;20034;-55
2022/11/24 11:24:13;;;;;;;11.02;2.00;;;;;;;17.62;64.32;100161.59;8319128;28;20140;-53
2022/11/24 11:28:26;;;;;;;11.80;1.55;;;;;;;18.27;63.39;100168.50;8323260;28;20037;-55
2022/11/24 11:32:27;;;;;;;14.23;1.90;;;;;;;18.65;61.83;100167.13;8315719;28;20045;-52
2022/11/24 11:36:30;;;;;;;9.80;1.83;;;;;;;18.97;61.10;100166.47;8317355;28;20289;-54
2022/11/24 11:40:31;;;;;;;17.55;1.73;;;;;;;18.59;61.05;100176.16;8318765;28;20045;-54
2022/11/24 11:44:56;;;;;;;17.50;2.13;;;;;;;17.94;62.70;100192.00;8310081;28;20423;-51
2022/11/24 11:48:57;;;;;;;11.60;1.90;;;;;;;17.35;64.05;100182.25;8286646;28;20049;-55
2022/11/24 11:53:35;;;;;;;11.60;1.85;;;;;;;17.70;63.74;100178.72;8286658;28;20333;-55
2022/11/24 12:02:38;;;;;;;17.80;2.08;;;;;;;16.31;69.27;100187.06;8378454;27;20118;-54
2022/11/24 12:07:17;;;;;;;15.70;2.20;;;;;;;17.24;66.35;100185.50;8358823;28;20041;-54
2022/11/24 12:11:31;;;;;;;12.32;1.88;;;;;;;17.37;65.45;100174.72;8317588;28;20431;-54
2022/11/24 12:15:46;;;;;;;7.25;1.42;;;;;;;16.93;65.81;100176.69;8329671;28;20045;-52
2022/11/24 12:20:12;;;;;;;8.25;1.90;;;;;;;16.40;66.95;100169.59;8322991;28;20038;-54
2022/11/24 12:24:38;;;;;;;12.07;1.58;;;;;;;15.46;71.32;100171.06;8339064;28;20499;-53
2022/11/24 12:28:51;;;;;;;16.40;1.80;;;;;;;14.70;74.27;100170.91;8335352;28;20274;-51
2022/11/24 12:33:20;;;;;;;20.63;2.13;;;;;;;14.13;76.40;100163.00;8348129;28;20032;-52
2022/11/24 12:37:49;;;;;;;15.65;2.55;;;;;;;13.93;77.38;100170.69;8299916;28;20034;-53
2022/11/24 12:42:16;;;;;;;16.02;2.25;;;;;;;14.15;75.05;100159.09;8306965;28;20602;-51
2022/11/24 12:50:36;;;;;;;13.55;2.10;;;;;;;14.02;75.70;100156.06;8345515;27;20469;-55
2022/11/24 12:54:39;;;;;;;12.02;1.73;;;;;;;13.84;77.32;100147.25;8344772;28;20047;-53
2022/11/24 12:59:11;;;;;;;14.13;2.45;;;;;;;13.63;78.67;100157.75;8341753;28;20410;-54
2022/11/24 13:03:44;;;;;;;12.52;2.55;;;;;;;13.73;77.38;100159.28;8345158;28;20056;-55
2022/11/24 13:07:48;;;;;;;15.88;2.17;;;;;;;13.74;76.15;100154.72;8336219;28;20037;-53
2022/11/24 13:11:50;;;;;;;11.73;1.77;;;;;;;13.69;75.98;100173.38;8347910;28;20053;-54
2022/11/24 13:20:24;;;;;;;11.65;2.17;;;;;;;13.64;77.95;100170.34;8415043;27;20842;-55
2022/11/24 13:24:29;;;;;;;10.02;1.95;;;;;;;13.46;80.14;100170.50;8382912;28;20045;-54
2022/11/24 13:29:05;;;;;;;15.88;2.65;;;;;;;13.72;78.56;100176.63;8408003;27;20063;-55
2022/11/24 13:37:30;;;;;;;8.07;1.90;;;;;;;13.62;75.90;100199.53;8312887;28;20423;-52
2022/11/24 13:45:49;;;;;;;12.85;2.15;;;;;;;13.47;76.19;100180.34;8396180;27;20401;-54
2022/11/24 13:49:49;;;;;;;12.48;2.13;;;;;;;13.58;75.41;100185.44;8401937;28;20039;-52
2022/11/24 13:53:52;;;;;;;12.77;3.05;;;;;;;13.85;74.34;100176.97;8382015;28;20032;-54
2022/11/24 13:57:59;;;;;;;19.25;2.15;;;;;;;13.75;74.16;100183.56;8386740;28;20037;-54
2022/11/24 14:02:18;;;;;;;15.48;2.13;;;;;;;13.78;74.01;100183.25;8395361;28;20400;-52
2022/11/24 14:06:28;;;;;;;15.25;2.53;;;;;;;13.61;75.27;100190.53;8376809;28;20048;-55
2022/11/24 14:10:33;;;;;;;16.67;2.75;;;;;;;13.51;75.11;100191.72;8383832;28;20091;-53
2022/11/24 14:14:34;;;;;;;14.25;1.92;;;;;;;13.45;75.74;100193.22;8359005;28;20045;-54
2022/11/24 14:18:37;;;;;;;22.05;2.97;;;;;;;13.42;75.76;100181.88;8378153;28;20082;-54
2022/11/24 14:22:40;;;;;;;18.05;2.33;;;;;;;13.71;75.49;100176.78;8364316;28;20487;-52
2022/11/24 14:26:40;;;;;;;15.77;2.95;;;;;;;13.78;75.50;100177.81;8345457;28;20033;-52
2022/11/24 14:30:41;;;;;;;16.20;2.80;;;;;;;13.66;76.32;100180.00;8374931;28;20546;-51
2022/11/24 14:34:42;;;;;;;13.63;2.17;;;;;;;13.67;75.36;100168.13;8378341;28;20071;-52
2022/11/24 14:38:43;;;;;;;17.60;2.70;;;;;;;13.47;75.63;100168.63;8376887;28;20032;-50
2022/11/24 14:42:49;;;;;;;16.00;2.15;;;;;;;13.24;77.46;100162.13;8377239;28;20059;-52
2022/11/24 14:46:59;;;;;;;20.05;2.20;;;;;;;13.23;78.38;100169.41;8358720;28;20040;-54
2022/11/24 14:51:07;;;;;;;14.18;2.72;;;;;;;13.16;79.67;100181.97;8380793;28;20202;-50
2022/11/24 14:55:22;;;;;;;14.93;2.47;;;;;;;12.99;80.36;100179.34;8381213;28;20036;-51
2022/11/24 14:59:26;;;;;;;10.57;2.53;;;;;;;12.97;80.27;100186.78;8361076;28;20037;-51
2022/11/24 15:03:27;;;;;;;14.73;2.53;;;;;;;12.76;80.35;100189.91;8355458;28;20521;-52
2022/11/24 15:07:28;;;;;;;13.60;2.63;;;;;;;12.58;80.54;100201.84;8345598;28;20399;-52
2022/11/24 15:11:31;;;;;;;14.20;2.28;;;;;;;12.57;80.38;100201.00;8342753;28;20045;-50
2022/11/24 15:15:35;;;;;;;15.15;2.17;;;;;;;12.45;80.59;100198.72;8372747;28;20600;-52
2022/11/24 15:19:36;;;;;;;11.88;2.10;;;;;;;12.30;81.42;100203.03;8384935;28;20041;-50
2022/11/24 15:23:40;;;;;;;16.23;2.13;;;;;;;12.22;81.37;100200.25;8354471;28;20049;-51
2022/11/24 15:27:41;;;;;;;16.08;2.50;;;;;;;12.16;81.37;100200.88;8352862;28;20136;-51
2022/11/24 15:31:41;;;;;;;16.13;2.60;;;;;;;11.95;81.80;100195.00;8354109;28;20044;-50
2022/11/24 15:35:43;;;;;;;14.82;2.08;;;;;;;11.88;82.05;100206.44;8369260;28;20042;-51
2022/11/24 15:39:44;;;;;;;11.98;1.90;;;;;;;11.63;83.91;100209.97;8362410;28;20033;-50
2022/11/24 15:43:45;;;;;;;12.30;2.53;;;;;;;11.60;83.72;100204.81;8319066;28;20037;-51
2022/11/24 15:47:46;;;;;;;18.63;3.47;;;;;;;11.57;83.62;100205.13;8319782;28;20061;-50
2022/11/24 15:51:47;;;;;;;14.32;2.30;;;;;;;11.53;83.72;100205.59;8319787;28;20419;-51
2022/11/24 15:55:49;;;;;;;16.48;2.25;;;;;;;11.37;84.06;100208.97;8320899;28;20446;-51
2022/11/24 15:59:51;;;;;;;10.32;2.65;;;;;;;11.32;84.74;100222.09;8332425;28;20337;-51
2022/11/24 16:03:51;;;;;;;14.55;3.17;;;;;;;11.22;85.42;100237.53;8322741;28;20041;-50
2022/11/24 16:07:52;;;;;;;13.98;2.85;;;;;;;11.16;85.24;100238.16;8348059;28;20110;-53
2022/11/24 16:11:52;;;;;;;12.45;2.42;;;;;;;11.11;85.21;100231.50;8348152;28;20033;-51
2022/11/24 16:15:53;;;;;;;11.70;2.00;;;;;;;11.03;85.46;100232.25;8350368;28;20033;-49
2022/11/24 16:19:54;;;;;;;14.70;2.10;;;;;;;11.07;84.55;100238.22;8356592;28;20377;-49
2022/11/24 16:23:54;;;;;;;13.10;2.00;;;;;;;10.97;84.14;100230.16;8350964;28;20060;-50
2022/11/24 16:27:55;;;;;;;7.53;1.70;;;;;;;10.87;84.76;100236.59;8349711;28;20121;-52
2022/11/24 16:31:56;;;;;;;14.80;2.10;;;;;;;10.78;85.20;100238.34;8347679;28;20040;-51
2022/11/24 16:35:57;;;;;;;10.90;2.00;;;;;;;10.73;85.46;100235.22;8339542;28;20040;-49
2022/11/24 16:40:00;;;;;;;14.25;2.10;;;;;;;10.62;85.81;100240.84;8366342;28;20131;-50
2022/11/24 16:44:00;;;;;;;13.55;2.22;;;;;;;10.47;86.65;100244.16;8352351;28;20128;-52
2022/11/24 16:48:01;;;;;;;10.82;1.65;;;;;;;10.40;86.70;100243.88;8356298;28;20281;-49
2022/11/24 16:52:02;;;;;;;12.20;1.95;;;;;;;10.32;86.65;100246.47;8375057;28;20475;-49
2022/11/24 16:56:03;;;;;;;11.82;2.25;;;;;;;10.30;86.27;100243.06;8384829;28;20036;-51
2022/11/24 17:00:05;;;;;;;15.40;1.95;;;;;;;10.27;86.31;100237.94;8352387;28;20409;-50
2022/11/24 17:04:06;;;;;;;15.45;2.78;;;;;;;10.03;87.58;100230.28;8330233;28;20449;-51
2022/11/24 17:08:06;;;;;;;19.38;4.75;;;;;;;9.87;88.19;100240.81;8347125;28;20049;-50
2022/11/24 17:12:07;;;;;;;16.25;3.38;;;;;;;9.68;89.26;100261.56;8366402;28;20036;-51
2022/11/24 17:16:12;;;;;;;26.00;7.07;;;;;;;9.08;92.49;100261.72;8346152;28;20144;-50
2022/11/24 17:20:12;;;;;;;18.83;6.60;;;;;;;8.69;95.39;100260.72;8343888;28;20164;-50
2022/11/24 17:24:16;;;;;;;17.42;5.80;;;;;;;8.53;97.19;100254.09;8366706;28;20736;-50
2022/11/24 17:28:17;;;;;;;21.83;6.65;;;;;;;8.45;98.47;100262.03;8350181;28;20249;-50
2022/11/24 17:32:17;;;;;;;16.52;6.05;;;;;;;8.52;97.74;100260.50;8350117;28;20047;-51
2022/11/24 17:36:18;;;;;;;16.77;4.30;;;;;;;8.51;97.35;100261.50;8382078;28;20063;-50
2022/11/24 17:40:19;;;;;;;17.20;3.45;;;;;;;8.44;97.20;100265.69;8342754;28;20041;-49
2022/11/24 17:44:20;;;;;;;16.77;3.42;;;;;;;8.01;98.81;100266.69;8346839;28;20376;-49
2022/11/24 17:48:21;;;;;;;17.92;3.80;;;;;;;7.73;100.00;100267.31;8350195;28;20056;-52
2022/11/24 17:52:23;;;;;;;21.75;6.68;;;;;;;7.56;100.00;100270.53;8349277;28;20044;-51
2022/11/24 17:56:26;;;;;;;23.75;7.60;;;;;;;7.45;100.00;100275.97;8350167;28;20068;-51
2022/11/24 18:00:26;;;;;;;20.15;2.50;;;;;;;7.37;100.00;100274.88;8349955;28;20055;-53
2022/11/24 18:04:27;;;;;;;19.08;4.57;;;;;;;7.49;100.00;100281.94;8353793;28;20037;-50
2022/11/24 18:08:30;;;;;;;15.00;3.55;;;;;;;7.73;100.00;100275.38;8365934;28;20318;-50
2022/11/24 18:12:31;;;;;;;17.45;3.38;;;;;;;7.51;100.00;100272.75;8348882;28;20041;-50
2022/11/24 18:16:33;;;;;;;21.88;3.80;;;;;;;7.41;100.00;100270.97;8336942;28;20060;-50
2022/11/24 18:20:34;;;;;;;17.58;3.42;;;;;;;7.36;100.00;100267.78;8321157;28;20056;-50
2022/11/24 18:24:34;;;;;;;13.15;2.70;;;;;;;7.40;100.00;100272.78;8340804;28;20044;-52
2022/11/24 18:28:35;;;;;;;18.10;3.40;;;;;;;7.35;100.00;100258.88;8314236;28;20491;-51
2022/11/24 18:32:35;;;;;;;10.00;3.22;;;;;;;7.27;100.00;100264.03;8354776;28;20047;-49
2022/11/24 18:36:36;;;;;;;16.02;3.92;;;;;;;7.47;100.00;100263.22;8355281;28;20041;-52
2022/11/24 18:40:39;;;;;;;15.10;3.80;;;;;;;7.63;100.00;100263.66;8355157;28;20039;-51
2022/11/24 18:44:41;;;;;;;18.40;4.55;;;;;;;7.62;100.00;100256.56;8354720;28;20102;-50
2022/11/24 18:48:43;;;;;;;17.02;3.90;;;;;;;7.57;100.00;100256.09;8352495;28;20083;-52
2022/11/24 18:52:43;;;;;;;17.40;3.17;;;;;;;7.64;100.00;100262.69;8330919;28;20037;-51
2022/11/24 18:56:44;;;;;;;11.57;3.08;;;;;;;7.61;100.00;100265.63;8340992;28;20061;-50
2022/11/24 19:00:44;;;;;;;17.92;3.22;;;;;;;7.74;100.00;100266.31;8341356;28;20071;-51
2022/11/24 19:04:46;;;;;;;22.23;3.22;;;;;;;7.84;100.00;100261.03;8349504;28;20037;-52
2022/11/24 19:08:47;;;;;;;17.27;3.10;;;;;;;7.88;100.00;100262.47;8351565;28;20091;-49
2022/11/24 19:12:48;;;;;;;16.92;3.13;;;;;;;7.90;99.71;100261.34;8352188;28;20044;-49